sensor_id;sensor_type;location;lat;lon;timestamp;temperature;humidity
18624;DHT22;9441;51.420;7.036;2022-08-04T00:00:26;22.30;1.00
18624;DHT22;9441;51.420;7.036;2022-08-04T00:01:31;22.30;1.00
18624;DHT22;9441;51.420;7.036;2022-08-04T00:02:42;22.30;1.00
18624;DHT22;9441;51.420;7.036;2022-08-04T00:03:52;22.30;1.00
18624;DHT22;9441;51.420;7.036;2022-08-04T00:05:00;22.30;1.00
18624;DHT22;9441;51.420;7.036;2022-08-04T00:06:07;22.20;1.00
18624;DHT22;9441;51.420;7.036;2022-08-04T00:07:15;22.30;1.00
18624;DHT22;9441;51.420;7.036;2022-08-04T00:08:23;22.30;1.00
18624;DHT22;9441;51.420;7.036;2022-08-04T00:09:29;22.20;1.00
18624;DHT22;9441;51.420;7.036;2022-08-04T00:10:38;22.20;1.00
18624;DHT22;9441;51.420;7.036;2022-08-04T00:11:43;22.10;1.00
18624;DHT22;9441;51.420;7.036;2022-08-04T00:12:50;22.10;91.80
18624;DHT22;9441;51.420;7.036;2022-08-04T00:13:53;22.10;1.00
18624;DHT22;9441;51.420;7.036;2022-08-04T00:15:00;22.00;99.90
18624;DHT22;9441;51.420;7.036;2022-08-04T00:16:04;22.00;99.90
18624;DHT22;9441;51.420;7.036;2022-08-04T00:17:07;22.00;99.90
18624;DHT22;9441;51.420;7.036;2022-08-04T00:18:09;22.10;99.90
18624;DHT22;9441;51.420;7.036;2022-08-04T00:19:17;22.10;1.00
18624;DHT22;9441;51.420;7.036;2022-08-04T00:20:20;22.10;1.00
18624;DHT22;9441;51.420;7.036;2022-08-04T00:21:25;22.10;1.00
18624;DHT22;9441;51.420;7.036;2022-08-04T00:22:28;22.00;1.00
18624;DHT22;9441;51.420;7.036;2022-08-04T00:23:33;22.10;1.00
18624;DHT22;9441;51.420;7.036;2022-08-04T00:24:36;22.10;1.00
18624;DHT22;9441;51.420;7.036;2022-08-04T00:25:38;22.20;1.00
18624;DHT22;9441;51.420;7.036;2022-08-04T00:26:40;22.10;1.00
18624;DHT22;9441;51.420;7.036;2022-08-04T00:27:43;22.20;1.00
18624;DHT22;9441;51.420;7.036;2022-08-04T00:28:44;22.20;1.00
18624;DHT22;9441;51.420;7.036;2022-08-04T00:29:47;22.20;1.00
18624;DHT22;9441;51.420;7.036;2022-08-04T00:30:48;22.20;1.00
18624;DHT22;9441;51.420;7.036;2022-08-04T00:31:52;22.10;1.00
18624;DHT22;9441;51.420;7.036;2022-08-04T00:32:55;22.10;1.00
18624;DHT22;9441;51.420;7.036;2022-08-04T00:33:58;22.10;1.00
18624;DHT22;9441;51.420;7.036;2022-08-04T00:35:01;22.20;1.00
18624;DHT22;9441;51.420;7.036;2022-08-04T00:36:05;22.20;1.00
18624;DHT22;9441;51.420;7.036;2022-08-04T00:37:06;22.20;1.00
18624;DHT22;9441;51.420;7.036;2022-08-04T00:38:09;22.10;1.00
18624;DHT22;9441;51.420;7.036;2022-08-04T00:39:12;22.10;1.00
18624;DHT22;9441;51.420;7.036;2022-08-04T00:40:23;22.10;1.00
18624;DHT22;9441;51.420;7.036;2022-08-04T00:41:33;22.10;1.00
18624;DHT22;9441;51.420;7.036;2022-08-04T00:42:43;22.10;1.00
18624;DHT22;9441;51.420;7.036;2022-08-04T00:44:00;22.10;1.00
18624;DHT22;9441;51.420;7.036;2022-08-04T00:45:23;22.10;1.00
18624;DHT22;9441;51.420;7.036;2022-08-04T00:46:54;22.00;99.90
18624;DHT22;9441;51.420;7.036;2022-08-04T00:48:10;22.10;99.90
18624;DHT22;9441;51.420;7.036;2022-08-04T00:49:41;22.20;1.00
18624;DHT22;9441;51.420;7.036;2022-08-04T00:50:49;22.10;99.90
18624;DHT22;9441;51.420;7.036;2022-08-04T00:52:00;22.00;1.00
18624;DHT22;9441;51.420;7.036;2022-08-04T00:53:08;22.00;1.00
18624;DHT22;9441;51.420;7.036;2022-08-04T00:54:21;22.10;1.00
18624;DHT22;9441;51.420;7.036;2022-08-04T00:55:53;22.00;1.00
18624;DHT22;9441;51.420;7.036;2022-08-04T00:57:17;22.10;1.00
18624;DHT22;9441;51.420;7.036;2022-08-04T00:58:26;22.00;1.00
18624;DHT22;9441;51.420;7.036;2022-08-04T00:59:42;22.00;1.00
18624;DHT22;9441;51.420;7.036;2022-08-04T01:00:54;22.00;1.00
18624;DHT22;9441;51.420;7.036;2022-08-04T01:02:00;22.00;1.00
18624;DHT22;9441;51.420;7.036;2022-08-04T01:03:12;22.00;1.00
18624;DHT22;9441;51.420;7.036;2022-08-04T01:04:19;22.00;1.00
18624;DHT22;9441;51.420;7.036;2022-08-04T01:05:32;22.00;99.90
18624;DHT22;9441;51.420;7.036;2022-08-04T01:06:38;22.00;99.90
18624;DHT22;9441;51.420;7.036;2022-08-04T01:07:59;22.00;99.90
18624;DHT22;9441;51.420;7.036;2022-08-04T01:09:30;22.00;99.90
18624;DHT22;9441;51.420;7.036;2022-08-04T01:10:47;22.00;99.90
18624;DHT22;9441;51.420;7.036;2022-08-04T01:12:03;22.00;99.90
18624;DHT22;9441;51.420;7.036;2022-08-04T01:13:25;21.90;3.10
18624;DHT22;9441;51.420;7.036;2022-08-04T01:14:54;21.90;99.90
18624;DHT22;9441;51.420;7.036;2022-08-04T01:16:02;21.90;99.90
18624;DHT22;9441;51.420;7.036;2022-08-04T01:17:11;21.90;1.00
18624;DHT22;9441;51.420;7.036;2022-08-04T01:18:21;21.80;1.00
18624;DHT22;9441;51.420;7.036;2022-08-04T01:21:20;21.90;1.00
18624;DHT22;9441;51.420;7.036;2022-08-04T01:22:59;21.80;1.00
18624;DHT22;9441;51.420;7.036;2022-08-04T01:24:23;21.80;1.00
18624;DHT22;9441;51.420;7.036;2022-08-04T01:27:01;21.80;1.00
18624;DHT22;9441;51.420;7.036;2022-08-04T01:28:18;21.90;1.00
18624;DHT22;9441;51.420;7.036;2022-08-04T01:29:26;21.90;1.00
18624;DHT22;9441;51.420;7.036;2022-08-04T01:30:29;21.90;99.90
18624;DHT22;9441;51.420;7.036;2022-08-04T01:31:54;21.90;75.80
18624;DHT22;9441;51.420;7.036;2022-08-04T01:33:01;21.80;99.90
18624;DHT22;9441;51.420;7.036;2022-08-04T01:34:05;21.80;35.50
18624;DHT22;9441;51.420;7.036;2022-08-04T01:35:15;21.70;1.00
18624;DHT22;9441;51.420;7.036;2022-08-04T01:36:23;21.70;1.00
18624;DHT22;9441;51.420;7.036;2022-08-04T01:37:37;21.70;1.00
18624;DHT22;9441;51.420;7.036;2022-08-04T01:38:42;21.70;1.00
18624;DHT22;9441;51.420;7.036;2022-08-04T01:39:49;21.60;1.00
18624;DHT22;9441;51.420;7.036;2022-08-04T01:40:54;21.60;1.00
18624;DHT22;9441;51.420;7.036;2022-08-04T01:41:56;21.60;90.40
18624;DHT22;9441;51.420;7.036;2022-08-04T01:42:59;21.50;99.90
18624;DHT22;9441;51.420;7.036;2022-08-04T01:44:02;21.60;99.90
18624;DHT22;9441;51.420;7.036;2022-08-04T01:45:09;21.60;99.90
18624;DHT22;9441;51.420;7.036;2022-08-04T01:46:12;21.60;99.90
18624;DHT22;9441;51.420;7.036;2022-08-04T01:47:16;21.60;99.90
18624;DHT22;9441;51.420;7.036;2022-08-04T01:48:23;21.60;1.00
18624;DHT22;9441;51.420;7.036;2022-08-04T01:49:28;21.60;1.00
18624;DHT22;9441;51.420;7.036;2022-08-04T01:50:33;21.40;1.00
18624;DHT22;9441;51.420;7.036;2022-08-04T01:51:38;21.40;10.60
18624;DHT22;9441;51.420;7.036;2022-08-04T01:52:41;21.40;99.90
18624;DHT22;9441;51.420;7.036;2022-08-04T01:53:43;21.40;1.00
18624;DHT22;9441;51.420;7.036;2022-08-04T01:54:45;21.50;1.00
18624;DHT22;9441;51.420;7.036;2022-08-04T01:55:51;21.50;1.00
18624;DHT22;9441;51.420;7.036;2022-08-04T01:56:53;21.50;1.00
18624;DHT22;9441;51.420;7.036;2022-08-04T01:57:58;21.50;1.00
18624;DHT22;9441;51.420;7.036;2022-08-04T01:59:02;21.50;1.00
18624;DHT22;9441;51.420;7.036;2022-08-04T02:00:07;21.60;1.00
18624;DHT22;9441;51.420;7.036;2022-08-04T02:01:12;21.50;1.00
18624;DHT22;9441;51.420;7.036;2022-08-04T02:02:14;21.50;1.00
18624;DHT22;9441;51.420;7.036;2022-08-04T02:03:16;21.40;1.00
18624;DHT22;9441;51.420;7.036;2022-08-04T02:04:19;21.40;1.00
18624;DHT22;9441;51.420;7.036;2022-08-04T02:05:22;21.30;3.10
18624;DHT22;9441;51.420;7.036;2022-08-04T02:06:31;21.30;99.90
18624;DHT22;9441;51.420;7.036;2022-08-04T02:07:44;21.30;1.00
18624;DHT22;9441;51.420;7.036;2022-08-04T02:08:52;21.30;1.00
18624;DHT22;9441;51.420;7.036;2022-08-04T02:10:03;21.30;1.00
18624;DHT22;9441;51.420;7.036;2022-08-04T02:11:12;21.30;1.00
18624;DHT22;9441;51.420;7.036;2022-08-04T02:12:24;21.30;99.90
18624;DHT22;9441;51.420;7.036;2022-08-04T02:13:32;21.40;1.00
18624;DHT22;9441;51.420;7.036;2022-08-04T02:14:43;21.40;1.00
18624;DHT22;9441;51.420;7.036;2022-08-04T02:15:56;21.40;1.00
18624;DHT22;9441;51.420;7.036;2022-08-04T02:16:58;21.40;1.00
18624;DHT22;9441;51.420;7.036;2022-08-04T02:18:03;21.30;1.00
18624;DHT22;9441;51.420;7.036;2022-08-04T02:19:16;21.30;1.00
18624;DHT22;9441;51.420;7.036;2022-08-04T02:20:23;21.40;1.00
18624;DHT22;9441;51.420;7.036;2022-08-04T02:21:27;21.30;1.00
18624;DHT22;9441;51.420;7.036;2022-08-04T02:22:30;21.30;1.00
18624;DHT22;9441;51.420;7.036;2022-08-04T02:23:36;21.30;1.00
18624;DHT22;9441;51.420;7.036;2022-08-04T02:24:45;21.20;1.00
18624;DHT22;9441;51.420;7.036;2022-08-04T02:25:55;21.10;1.00
18624;DHT22;9441;51.420;7.036;2022-08-04T02:27:00;21.10;99.90
18624;DHT22;9441;51.420;7.036;2022-08-04T02:28:21;21.20;1.00
18624;DHT22;9441;51.420;7.036;2022-08-04T02:29:33;21.20;99.90
18624;DHT22;9441;51.420;7.036;2022-08-04T02:30:40;21.20;99.90
18624;DHT22;9441;51.420;7.036;2022-08-04T02:31:48;21.20;99.90
18624;DHT22;9441;51.420;7.036;2022-08-04T02:32:54;21.20;1.00
18624;DHT22;9441;51.420;7.036;2022-08-04T02:34:05;21.20;1.00
18624;DHT22;9441;51.420;7.036;2022-08-04T02:35:09;21.20;15.60
18624;DHT22;9441;51.420;7.036;2022-08-04T02:36:25;21.30;99.90
18624;DHT22;9441;51.420;7.036;2022-08-04T02:37:32;21.30;1.00
18624;DHT22;9441;51.420;7.036;2022-08-04T02:38:46;21.30;1.00
18624;DHT22;9441;51.420;7.036;2022-08-04T02:39:52;21.20;1.00
18624;DHT22;9441;51.420;7.036;2022-08-04T02:40:55;21.20;99.90
18624;DHT22;9441;51.420;7.036;2022-08-04T02:41:58;21.20;1.00
18624;DHT22;9441;51.420;7.036;2022-08-04T02:43:03;21.10;59.90
18624;DHT22;9441;51.420;7.036;2022-08-04T02:44:06;21.20;99.90
18624;DHT22;9441;51.420;7.036;2022-08-04T02:45:11;21.20;99.90
18624;DHT22;9441;51.420;7.036;2022-08-04T02:46:13;21.20;99.90
18624;DHT22;9441;51.420;7.036;2022-08-04T02:47:20;21.10;99.90
18624;DHT22;9441;51.420;7.036;2022-08-04T02:48:23;21.10;99.90
18624;DHT22;9441;51.420;7.036;2022-08-04T02:49:25;21.10;1.00
18624;DHT22;9441;51.420;7.036;2022-08-04T02:50:28;21.10;1.00
18624;DHT22;9441;51.420;7.036;2022-08-04T02:51:34;21.00;99.90
18624;DHT22;9441;51.420;7.036;2022-08-04T02:52:37;21.00;99.90
18624;DHT22;9441;51.420;7.036;2022-08-04T02:53:40;20.90;99.90
18624;DHT22;9441;51.420;7.036;2022-08-04T02:54:44;20.90;52.40
18624;DHT22;9441;51.420;7.036;2022-08-04T02:55:45;20.80;1.00
18624;DHT22;9441;51.420;7.036;2022-08-04T02:56:50;20.80;1.00
18624;DHT22;9441;51.420;7.036;2022-08-04T02:57:53;20.80;1.00
18624;DHT22;9441;51.420;7.036;2022-08-04T02:58:58;20.80;1.00
18624;DHT22;9441;51.420;7.036;2022-08-04T03:00:05;20.80;91.40
18624;DHT22;9441;51.420;7.036;2022-08-04T03:01:07;20.90;99.90
18624;DHT22;9441;51.420;7.036;2022-08-04T03:02:09;21.00;99.90
18624;DHT22;9441;51.420;7.036;2022-08-04T03:03:23;21.00;99.90
18624;DHT22;9441;51.420;7.036;2022-08-04T03:04:45;20.90;99.90
18624;DHT22;9441;51.420;7.036;2022-08-04T03:06:27;20.90;99.90
18624;DHT22;9441;51.420;7.036;2022-08-04T03:07:56;20.90;99.90
18624;DHT22;9441;51.420;7.036;2022-08-04T03:09:17;21.00;99.90
18624;DHT22;9441;51.420;7.036;2022-08-04T03:10:52;20.80;1.00
18624;DHT22;9441;51.420;7.036;2022-08-04T03:12:34;20.70;61.70
18624;DHT22;9441;51.420;7.036;2022-08-04T03:14:05;20.70;99.90
18624;DHT22;9441;51.420;7.036;2022-08-04T03:15:39;20.60;99.90
18624;DHT22;9441;51.420;7.036;2022-08-04T03:17:14;20.70;99.90
18624;DHT22;9441;51.420;7.036;2022-08-04T03:20:43;20.80;99.90
18624;DHT22;9441;51.420;7.036;2022-08-04T03:22:22;20.80;99.90
18624;DHT22;9441;51.420;7.036;2022-08-04T03:24:09;20.70;99.90
18624;DHT22;9441;51.420;7.036;2022-08-04T03:25:36;20.80;99.90
18624;DHT22;9441;51.420;7.036;2022-08-04T03:26:51;20.60;99.90
18624;DHT22;9441;51.420;7.036;2022-08-04T03:28:23;20.70;99.90
18624;DHT22;9441;51.420;7.036;2022-08-04T03:34:35;20.60;99.90
18624;DHT22;9441;51.420;7.036;2022-08-04T03:37:45;20.70;99.90
18624;DHT22;9441;51.420;7.036;2022-08-04T03:40:39;20.60;99.90
18624;DHT22;9441;51.420;7.036;2022-08-04T03:42:08;20.60;99.90
18624;DHT22;9441;51.420;7.036;2022-08-04T03:43:46;20.60;99.90
18624;DHT22;9441;51.420;7.036;2022-08-04T03:46:42;20.40;99.90
18624;DHT22;9441;51.420;7.036;2022-08-04T03:48:31;20.40;99.90
18624;DHT22;9441;51.420;7.036;2022-08-04T03:50:02;20.40;99.90
18624;DHT22;9441;51.420;7.036;2022-08-04T03:51:21;20.30;99.90
18624;DHT22;9441;51.420;7.036;2022-08-04T03:53:06;20.30;99.90
18624;DHT22;9441;51.420;7.036;2022-08-04T03:54:32;20.40;99.90
18624;DHT22;9441;51.420;7.036;2022-08-04T03:55:59;20.50;99.90
18624;DHT22;9441;51.420;7.036;2022-08-04T03:59:22;20.60;99.90
18624;DHT22;9441;51.420;7.036;2022-08-04T04:00:30;20.60;99.90
18624;DHT22;9441;51.420;7.036;2022-08-04T04:01:46;20.60;99.90
18624;DHT22;9441;51.420;7.036;2022-08-04T04:03:24;20.70;99.90
18624;DHT22;9441;51.420;7.036;2022-08-04T04:04:44;20.70;99.90
18624;DHT22;9441;51.420;7.036;2022-08-04T04:12:34;20.60;99.90
18624;DHT22;9441;51.420;7.036;2022-08-04T04:17:20;20.60;99.90
18624;DHT22;9441;51.420;7.036;2022-08-04T04:18:51;20.60;99.90
18624;DHT22;9441;51.420;7.036;2022-08-04T04:20:22;20.60;99.90
18624;DHT22;9441;51.420;7.036;2022-08-04T04:21:28;20.60;99.90
18624;DHT22;9441;51.420;7.036;2022-08-04T04:22:49;20.60;99.90
18624;DHT22;9441;51.420;7.036;2022-08-04T04:24:18;20.60;99.90
18624;DHT22;9441;51.420;7.036;2022-08-04T04:25:33;20.40;99.90
18624;DHT22;9441;51.420;7.036;2022-08-04T04:26:51;20.50;99.90
18624;DHT22;9441;51.420;7.036;2022-08-04T04:28:10;20.50;99.90
18624;DHT22;9441;51.420;7.036;2022-08-04T04:29:28;20.40;99.90
18624;DHT22;9441;51.420;7.036;2022-08-04T04:30:35;20.50;99.90
18624;DHT22;9441;51.420;7.036;2022-08-04T04:31:52;20.50;99.90
18624;DHT22;9441;51.420;7.036;2022-08-04T04:33:19;20.50;99.90
18624;DHT22;9441;51.420;7.036;2022-08-04T04:34:34;20.60;99.90
18624;DHT22;9441;51.420;7.036;2022-08-04T04:35:45;20.60;99.90
18624;DHT22;9441;51.420;7.036;2022-08-04T04:37:05;20.60;99.90
18624;DHT22;9441;51.420;7.036;2022-08-04T04:38:30;20.40;99.90
18624;DHT22;9441;51.420;7.036;2022-08-04T04:39:53;20.40;99.90
18624;DHT22;9441;51.420;7.036;2022-08-04T04:41:13;20.50;99.90
18624;DHT22;9441;51.420;7.036;2022-08-04T04:42:37;20.30;99.90
18624;DHT22;9441;51.420;7.036;2022-08-04T04:44:06;20.40;99.90
18624;DHT22;9441;51.420;7.036;2022-08-04T04:45:21;20.30;99.90
18624;DHT22;9441;51.420;7.036;2022-08-04T04:46:34;20.40;99.90
18624;DHT22;9441;51.420;7.036;2022-08-04T04:47:48;20.50;99.90
18624;DHT22;9441;51.420;7.036;2022-08-04T04:49:00;20.50;99.90
18624;DHT22;9441;51.420;7.036;2022-08-04T04:50:09;20.50;99.90
18624;DHT22;9441;51.420;7.036;2022-08-04T04:51:21;20.50;99.90
18624;DHT22;9441;51.420;7.036;2022-08-04T04:52:29;20.50;99.90
18624;DHT22;9441;51.420;7.036;2022-08-04T04:53:41;20.60;99.90
18624;DHT22;9441;51.420;7.036;2022-08-04T04:54:53;20.60;99.90
18624;DHT22;9441;51.420;7.036;2022-08-04T04:56:04;20.50;99.90
18624;DHT22;9441;51.420;7.036;2022-08-04T04:57:16;20.60;99.90
18624;DHT22;9441;51.420;7.036;2022-08-04T04:58:19;20.70;99.90
18624;DHT22;9441;51.420;7.036;2022-08-04T04:59:27;20.60;99.90
18624;DHT22;9441;51.420;7.036;2022-08-04T05:00:49;20.60;99.90
18624;DHT22;9441;51.420;7.036;2022-08-04T05:02:18;20.60;99.90
18624;DHT22;9441;51.420;7.036;2022-08-04T05:03:34;20.70;99.90
18624;DHT22;9441;51.420;7.036;2022-08-04T05:06:37;20.80;99.90
18624;DHT22;9441;51.420;7.036;2022-08-04T05:07:58;20.70;99.90
18624;DHT22;9441;51.420;7.036;2022-08-04T05:09:10;20.80;99.90
18624;DHT22;9441;51.420;7.036;2022-08-04T05:10:26;20.80;99.90
18624;DHT22;9441;51.420;7.036;2022-08-04T05:11:55;20.90;99.90
18624;DHT22;9441;51.420;7.036;2022-08-04T05:13:08;20.90;99.90
18624;DHT22;9441;51.420;7.036;2022-08-04T05:14:17;20.90;99.90
18624;DHT22;9441;51.420;7.036;2022-08-04T05:15:25;21.00;99.90
18624;DHT22;9441;51.420;7.036;2022-08-04T05:16:32;21.00;99.90
18624;DHT22;9441;51.420;7.036;2022-08-04T05:17:39;21.00;99.90
18624;DHT22;9441;51.420;7.036;2022-08-04T05:18:43;21.10;99.90
18624;DHT22;9441;51.420;7.036;2022-08-04T05:19:52;21.10;99.90
18624;DHT22;9441;51.420;7.036;2022-08-04T05:20:57;21.10;99.90
18624;DHT22;9441;51.420;7.036;2022-08-04T05:22:09;21.20;99.90
18624;DHT22;9441;51.420;7.036;2022-08-04T05:23:14;21.20;99.90
18624;DHT22;9441;51.420;7.036;2022-08-04T05:24:20;21.20;99.90
18624;DHT22;9441;51.420;7.036;2022-08-04T05:25:25;21.10;99.90
18624;DHT22;9441;51.420;7.036;2022-08-04T05:26:31;21.20;99.90
18624;DHT22;9441;51.420;7.036;2022-08-04T05:27:37;21.20;99.90
18624;DHT22;9441;51.420;7.036;2022-08-04T05:28:42;21.20;99.90
18624;DHT22;9441;51.420;7.036;2022-08-04T05:29:50;21.30;99.90
18624;DHT22;9441;51.420;7.036;2022-08-04T05:30:58;21.30;99.90
18624;DHT22;9441;51.420;7.036;2022-08-04T05:32:03;21.30;99.90
18624;DHT22;9441;51.420;7.036;2022-08-04T05:33:10;21.30;99.90
18624;DHT22;9441;51.420;7.036;2022-08-04T05:34:16;21.30;99.90
18624;DHT22;9441;51.420;7.036;2022-08-04T05:35:24;21.30;99.90
18624;DHT22;9441;51.420;7.036;2022-08-04T05:36:33;21.40;99.90
18624;DHT22;9441;51.420;7.036;2022-08-04T05:37:37;21.40;99.90
18624;DHT22;9441;51.420;7.036;2022-08-04T05:38:42;21.40;99.90
18624;DHT22;9441;51.420;7.036;2022-08-04T05:39:51;21.40;99.90
18624;DHT22;9441;51.420;7.036;2022-08-04T05:40:55;21.40;99.90
18624;DHT22;9441;51.420;7.036;2022-08-04T05:41:57;21.50;99.90
18624;DHT22;9441;51.420;7.036;2022-08-04T05:43:00;21.50;99.90
18624;DHT22;9441;51.420;7.036;2022-08-04T05:44:03;21.60;99.90
18624;DHT22;9441;51.420;7.036;2022-08-04T05:45:07;21.70;99.90
18624;DHT22;9441;51.420;7.036;2022-08-04T05:46:10;21.80;99.90
18624;DHT22;9441;51.420;7.036;2022-08-04T05:47:14;22.00;99.90
18624;DHT22;9441;51.420;7.036;2022-08-04T05:48:17;22.10;99.90
18624;DHT22;9441;51.420;7.036;2022-08-04T05:49:20;22.10;99.90
18624;DHT22;9441;51.420;7.036;2022-08-04T05:50:23;22.30;99.90
18624;DHT22;9441;51.420;7.036;2022-08-04T05:51:27;22.40;99.90
18624;DHT22;9441;51.420;7.036;2022-08-04T05:52:31;22.50;99.90
18624;DHT22;9441;51.420;7.036;2022-08-04T05:53:36;22.50;99.90
18624;DHT22;9441;51.420;7.036;2022-08-04T05:54:38;22.60;99.90
18624;DHT22;9441;51.420;7.036;2022-08-04T05:55:43;22.60;99.90
18624;DHT22;9441;51.420;7.036;2022-08-04T05:56:48;22.60;32.90
18624;DHT22;9441;51.420;7.036;2022-08-04T05:57:52;22.70;1.00
18624;DHT22;9441;51.420;7.036;2022-08-04T05:58:55;22.80;99.90
18624;DHT22;9441;51.420;7.036;2022-08-04T05:59:58;22.80;99.90
18624;DHT22;9441;51.420;7.036;2022-08-04T06:01:01;22.90;36.20
18624;DHT22;9441;51.420;7.036;2022-08-04T06:02:03;22.80;1.00
18624;DHT22;9441;51.420;7.036;2022-08-04T06:03:05;22.80;1.00
18624;DHT22;9441;51.420;7.036;2022-08-04T06:04:08;22.80;1.00
18624;DHT22;9441;51.420;7.036;2022-08-04T06:05:13;23.00;1.00
18624;DHT22;9441;51.420;7.036;2022-08-04T06:06:16;23.20;1.00
18624;DHT22;9441;51.420;7.036;2022-08-04T06:07:20;23.40;99.90
18624;DHT22;9441;51.420;7.036;2022-08-04T06:08:21;23.40;1.00
18624;DHT22;9441;51.420;7.036;2022-08-04T06:09:24;23.50;1.00
18624;DHT22;9441;51.420;7.036;2022-08-04T06:10:25;23.50;1.00
18624;DHT22;9441;51.420;7.036;2022-08-04T06:11:29;23.60;1.00
18624;DHT22;9441;51.420;7.036;2022-08-04T06:12:36;23.50;1.00
18624;DHT22;9441;51.420;7.036;2022-08-04T06:13:42;23.60;1.00
18624;DHT22;9441;51.420;7.036;2022-08-04T06:14:46;23.60;1.00
18624;DHT22;9441;51.420;7.036;2022-08-04T06:15:49;23.70;99.90
18624;DHT22;9441;51.420;7.036;2022-08-04T06:16:54;23.70;99.90
18624;DHT22;9441;51.420;7.036;2022-08-04T06:18:01;23.60;1.00
18624;DHT22;9441;51.420;7.036;2022-08-04T06:19:05;23.70;1.00
18624;DHT22;9441;51.420;7.036;2022-08-04T06:20:08;23.70;1.00
18624;DHT22;9441;51.420;7.036;2022-08-04T06:21:12;23.80;1.00
18624;DHT22;9441;51.420;7.036;2022-08-04T06:22:15;23.80;1.00
18624;DHT22;9441;51.420;7.036;2022-08-04T06:23:18;23.90;1.00
18624;DHT22;9441;51.420;7.036;2022-08-04T06:24:23;24.00;99.90
18624;DHT22;9441;51.420;7.036;2022-08-04T06:25:30;24.00;1.00
18624;DHT22;9441;51.420;7.036;2022-08-04T06:26:35;24.10;1.00
18624;DHT22;9441;51.420;7.036;2022-08-04T06:27:36;24.10;38.20
18624;DHT22;9441;51.420;7.036;2022-08-04T06:28:40;24.00;1.00
18624;DHT22;9441;51.420;7.036;2022-08-04T06:29:42;24.20;99.90
18624;DHT22;9441;51.420;7.036;2022-08-04T06:30:46;24.30;99.90
18624;DHT22;9441;51.420;7.036;2022-08-04T06:31:50;24.30;99.90
18624;DHT22;9441;51.420;7.036;2022-08-04T06:32:59;24.50;99.90
18624;DHT22;9441;51.420;7.036;2022-08-04T06:34:04;24.40;1.00
18624;DHT22;9441;51.420;7.036;2022-08-04T06:35:07;24.60;1.00
18624;DHT22;9441;51.420;7.036;2022-08-04T06:36:10;24.50;99.90
18624;DHT22;9441;51.420;7.036;2022-08-04T06:37:12;24.40;99.90
18624;DHT22;9441;51.420;7.036;2022-08-04T06:38:15;24.60;1.00
18624;DHT22;9441;51.420;7.036;2022-08-04T06:39:18;24.60;99.90
18624;DHT22;9441;51.420;7.036;2022-08-04T06:40:23;24.60;99.90
18624;DHT22;9441;51.420;7.036;2022-08-04T06:41:25;24.60;1.00
18624;DHT22;9441;51.420;7.036;2022-08-04T06:42:30;24.70;86.40
18624;DHT22;9441;51.420;7.036;2022-08-04T06:43:32;24.80;99.90
18624;DHT22;9441;51.420;7.036;2022-08-04T06:44:35;24.80;1.00
18624;DHT22;9441;51.420;7.036;2022-08-04T06:45:38;24.80;99.90
18624;DHT22;9441;51.420;7.036;2022-08-04T06:46:42;24.80;99.90
18624;DHT22;9441;51.420;7.036;2022-08-04T06:47:44;24.90;99.90
18624;DHT22;9441;51.420;7.036;2022-08-04T06:48:47;25.00;99.90
18624;DHT22;9441;51.420;7.036;2022-08-04T06:49:52;25.00;1.00
18624;DHT22;9441;51.420;7.036;2022-08-04T06:50:54;25.10;1.00
18624;DHT22;9441;51.420;7.036;2022-08-04T06:51:57;25.20;1.00
18624;DHT22;9441;51.420;7.036;2022-08-04T06:52:59;25.20;1.00
18624;DHT22;9441;51.420;7.036;2022-08-04T06:54:01;25.40;1.00
18624;DHT22;9441;51.420;7.036;2022-08-04T06:55:06;25.50;1.00
18624;DHT22;9441;51.420;7.036;2022-08-04T06:56:08;25.50;1.00
18624;DHT22;9441;51.420;7.036;2022-08-04T06:57:14;25.60;1.00
18624;DHT22;9441;51.420;7.036;2022-08-04T06:58:19;25.70;1.00
18624;DHT22;9441;51.420;7.036;2022-08-04T06:59:23;25.70;1.00
18624;DHT22;9441;51.420;7.036;2022-08-04T07:00:26;25.80;1.00
18624;DHT22;9441;51.420;7.036;2022-08-04T07:01:29;25.90;1.00
18624;DHT22;9441;51.420;7.036;2022-08-04T07:02:36;25.90;1.00
18624;DHT22;9441;51.420;7.036;2022-08-04T07:03:39;26.00;99.90
18624;DHT22;9441;51.420;7.036;2022-08-04T07:04:41;26.10;1.00
18624;DHT22;9441;51.420;7.036;2022-08-04T07:05:46;26.00;1.00
18624;DHT22;9441;51.420;7.036;2022-08-04T07:06:48;26.00;99.90
18624;DHT22;9441;51.420;7.036;2022-08-04T07:07:49;26.10;99.90
18624;DHT22;9441;51.420;7.036;2022-08-04T07:08:52;26.10;99.90
18624;DHT22;9441;51.420;7.036;2022-08-04T07:09:54;26.20;1.00
18624;DHT22;9441;51.420;7.036;2022-08-04T07:10:56;26.20;99.90
18624;DHT22;9441;51.420;7.036;2022-08-04T07:11:58;26.20;1.00
18624;DHT22;9441;51.420;7.036;2022-08-04T07:13:01;26.20;1.00
18624;DHT22;9441;51.420;7.036;2022-08-04T07:14:04;26.40;1.00
18624;DHT22;9441;51.420;7.036;2022-08-04T07:15:08;26.40;1.00
18624;DHT22;9441;51.420;7.036;2022-08-04T07:16:12;26.40;1.00
18624;DHT22;9441;51.420;7.036;2022-08-04T07:17:15;26.50;1.00
18624;DHT22;9441;51.420;7.036;2022-08-04T07:18:17;26.50;1.00
18624;DHT22;9441;51.420;7.036;2022-08-04T07:19:19;26.50;99.90
18624;DHT22;9441;51.420;7.036;2022-08-04T07:20:20;26.70;99.90
18624;DHT22;9441;51.420;7.036;2022-08-04T07:21:22;26.70;99.90
18624;DHT22;9441;51.420;7.036;2022-08-04T07:22:25;26.70;99.90
18624;DHT22;9441;51.420;7.036;2022-08-04T07:23:27;26.80;99.90
18624;DHT22;9441;51.420;7.036;2022-08-04T07:24:30;26.90;99.90
18624;DHT22;9441;51.420;7.036;2022-08-04T07:25:32;27.00;99.90
18624;DHT22;9441;51.420;7.036;2022-08-04T07:26:34;27.00;99.90
18624;DHT22;9441;51.420;7.036;2022-08-04T07:27:36;27.10;99.90
18624;DHT22;9441;51.420;7.036;2022-08-04T07:28:38;27.10;99.90
18624;DHT22;9441;51.420;7.036;2022-08-04T07:29:42;27.00;99.90
18624;DHT22;9441;51.420;7.036;2022-08-04T07:30:46;27.00;99.90
18624;DHT22;9441;51.420;7.036;2022-08-04T07:31:48;27.10;99.90
18624;DHT22;9441;51.420;7.036;2022-08-04T07:32:50;27.00;99.90
18624;DHT22;9441;51.420;7.036;2022-08-04T07:33:52;26.90;99.90
18624;DHT22;9441;51.420;7.036;2022-08-04T07:34:55;26.90;99.90
18624;DHT22;9441;51.420;7.036;2022-08-04T07:35:56;26.90;99.90
18624;DHT22;9441;51.420;7.036;2022-08-04T07:36:59;27.00;99.90
18624;DHT22;9441;51.420;7.036;2022-08-04T07:38:01;27.00;99.90
18624;DHT22;9441;51.420;7.036;2022-08-04T07:39:03;27.10;99.90
18624;DHT22;9441;51.420;7.036;2022-08-04T07:40:05;27.10;99.90
18624;DHT22;9441;51.420;7.036;2022-08-04T07:41:07;27.10;99.90
18624;DHT22;9441;51.420;7.036;2022-08-04T07:42:09;27.10;99.90
18624;DHT22;9441;51.420;7.036;2022-08-04T07:43:13;27.00;99.90
18624;DHT22;9441;51.420;7.036;2022-08-04T07:44:15;27.10;99.90
18624;DHT22;9441;51.420;7.036;2022-08-04T07:45:18;27.30;99.90
18624;DHT22;9441;51.420;7.036;2022-08-04T07:46:21;27.30;99.90
18624;DHT22;9441;51.420;7.036;2022-08-04T07:47:22;27.50;99.90
18624;DHT22;9441;51.420;7.036;2022-08-04T07:48:24;27.50;99.90
18624;DHT22;9441;51.420;7.036;2022-08-04T07:49:26;27.50;67.90
18624;DHT22;9441;51.420;7.036;2022-08-04T07:50:28;27.60;99.90
18624;DHT22;9441;51.420;7.036;2022-08-04T07:51:31;27.40;89.30
18624;DHT22;9441;51.420;7.036;2022-08-04T07:52:35;27.50;36.90
18624;DHT22;9441;51.420;7.036;2022-08-04T07:53:39;27.50;50.10
18624;DHT22;9441;51.420;7.036;2022-08-04T07:54:40;27.50;22.70
18624;DHT22;9441;51.420;7.036;2022-08-04T07:55:44;27.50;1.00